Aviation Digital Data Service (ADDS)

Output produced by METARs form (2106 UTC 21 September 2018)
found at http://aviationweather.gov/metar/data/
 
METAR text: TBPB 212100Z 09013KT 9999 FEW024 29/22 Q1011 NOSIG
Conditions at: TBPB (GRANTLEY ADAMS , BB) observed 2100 UTC 21 September 2018
Temperature: 29.0°C (84°F)
Dewpoint: 22.0°C (72°F) [RH = 66%]
Pressure (altimeter): 29.85 inches Hg (1011.0 mb)
Winds: from the E (90 degrees) at 15 MPH (13 knots; 6.7 m/s)
Visibility: 6 or more miles (10+ km)
Ceiling: at least 12,000 feet AGL
Clouds: few clouds at 2400 feet AGL
Weather: no significant weather observed at this time

Forecast for: TBPB (GRANTLEY ADAMS , BB)
Text: TAF TBPB 211700Z 2118/2218 09017KT 9999 SCT020
Forecast period: 1800 UTC 21 September 2018 to 1800 UTC 22 September 2018
Forecast type: FROM: standard forecast or significant change
Winds: from the E (90 degrees) at 20 MPH (17 knots; 8.7 m/s)
Visibility: 6 or more miles 10+ km)
Ceiling: at least 12,000 feet AGL
Clouds: scattered clouds at 2000 feet AGL
Weather: no significant weather forecast for this period